Latest Weather Observations for Lake Grace

IDW60801

Issued at 10:35 pm WST Monday 24 November 2014 (issued every 30 minutes, with the page automatically refreshed every 10 minutes)

About weather observations | Map of weather stations | Latest weather observations for WA | Other Formats
Station Details ID: 010911 Name: LAKE GRACE Lat: -33.10 Lon: 118.46 Height: 286.0 m
Data from the previous 72 hours. | See also: Recent months at Lake Grace
Date/Time
WST
Temp
°C
App
Temp
°C
Dew
Point
Rel
Hum
%
Delta-T
°C
Wind Press
QNH
hPa
Press
MSL
hPa
Rain
since 9 am
mm
Dir
 
Spd
km/h
Gust
km/h
Spd
kts
Gust
kts
24/10:30pm 12.9 8.7 7.6 70 2.6 ESE 19 30 10 16 1023.1 1022.3 0.0
24/10:00pm 13.3 8.9 7.5 68 2.9 ESE 20 32 11 17 1023.2 1022.4 0.0
24/09:30pm 13.8 8.3 7.6 66 3.1 ESE 26 35 14 19 1022.9 1022.1 0.0
24/09:00pm 14.6 8.3 7.6 63 3.5 ESE 30 46 16 25 1022.6 1021.8 0.0
24/08:58pm 14.6 8.7 7.6 63 3.5 ESE 28 46 15 25 1022.6 1021.8 0.0
24/08:30pm 15.6 10.2 7.9 60 3.9 ESE 26 41 14 22 1022.2 1021.4 0.0
24/08:18pm 16.1 10.3 7.8 58 4.2 SE 28 48 15 26 1022.0 1021.2 0.0
24/08:00pm 16.9 11.1 7.8 55 4.6 ESE 28 41 15 22 1021.8 1020.9 0.0
24/07:49pm 17.4 11.5 7.7 53 5.0 ESE 28 46 15 25 1021.6 1020.7 0.0
24/07:30pm 18.2 12.3 7.3 49 5.6 ESE 28 44 15 24 1021.3 1020.4 0.0
24/07:00pm 20.1 15.1 6.4 41 6.9 ESE 22 44 12 24 1020.9 1020.0 0.0
24/06:30pm 22.6 18.0 3.7 29 9.3 ESE 17 24 9 13 1020.2 1019.4 0.0
24/06:00pm 23.9 19.9 2.7 25 10.3 ESE 13 22 7 12 1019.9 1019.1 0.0
24/05:30pm 24.1 19.9 1.7 23 10.7 ESE 13 19 7 10 1019.7 1018.9 0.0
24/05:00pm 24.4 19.5 1.9 23 10.8 ESE 17 28 9 15 1019.4 1018.6 0.0
24/04:30pm 24.6 20.5 2.1 23 10.9 ESE 13 22 7 12 1019.3 1018.5 0.0
24/04:00pm 24.3 19.4 1.9 23 10.7 ESE 17 26 9 14 1019.5 1018.7 0.0
24/03:30pm 24.1 19.4 1.1 22 10.9 ESE 15 28 8 15 1019.7 1018.9 0.0
24/03:00pm 23.9 19.7 1.5 23 10.6 ENE 13 19 7 10 1019.9 1019.1 0.0
24/02:30pm 23.6 19.4 1.9 24 10.4 ESE 13 22 7 12 1020.3 1019.5 0.0
24/02:00pm 23.2 20.2 2.1 25 10.1 ENE 7 15 4 8 1020.6 1019.7 0.0
24/01:30pm 22.6 18.9 2.1 26 9.8 SSE 11 19 6 10 1020.9 1020.0 0.0
24/01:00pm 22.5 18.8 2.6 27 9.5 ESE 11 20 6 11 1021.2 1020.3 0.0
24/12:30pm 21.8 17.7 2.5 28 9.2 E 13 28 7 15 1021.5 1020.6 0.0
24/12:00pm 20.8 16.4 2.6 30 8.6 E 15 28 8 15 1022.0 1021.2 0.0
24/11:30am 20.1 16.1 2.9 32 8.2 E 13 24 7 13 1022.3 1021.5 0.0
24/11:00am 19.8 16.3 3.5 34 7.8 E 11 20 6 11 1022.7 1021.9 0.0
24/10:30am 18.6 14.7 3.6 37 7.1 ESE 13 20 7 11 1023.0 1022.2 0.0
24/10:00am 18.2 14.7 3.7 38 6.9 ESE 11 19 6 10 1023.2 1022.4 0.0
24/09:30am 16.7 12.6 4.1 43 6.0 SE 15 24 8 13 1023.5 1022.7 0.0
24/09:00am 16.3 12.6 4.7 46 5.5 ESE 13 17 7 9 1023.6 1022.8 0.0
24/08:30am 15.8 11.4 4.8 48 5.2 E 17 26 9 14 1023.7 1022.9 0.0
24/08:00am 15.0 11.0 5.0 51 4.8 ESE 15 24 8 13 1023.7 1022.9 0.0
24/07:30am 14.3 10.2 4.6 52 4.6 ESE 15 20 8 11 1023.7 1022.9 0.0
24/07:00am 12.9 9.5 6.0 63 3.3 SE 13 20 7 11 1023.5 1022.7 0.0
24/06:30am 11.2 8.1 5.7 69 2.6 SSE 11 13 6 7 1023.3 1022.5 0.0
24/06:00am 9.9 7.7 5.3 73 2.1 SE 6 9 3 5 1023.1 1022.3 0.0
24/05:30am 9.0 7.2 5.4 78 1.7 SE 4 7 2 4 1023.0 1022.2 0.0
24/05:00am 7.9 5.6 4.7 80 1.4 SE 6 7 3 4 1022.7 1021.9 0.0
24/04:30am 8.0 6.5 4.8 80 1.4 SE 2 7 1 4 1022.3 1021.5 0.0
24/04:00am 8.2 5.9 4.8 79 1.5 SSE 6 7 3 4 1022.1 1021.3 0.0
24/03:30am 8.5 5.6 4.9 78 1.6 SSE 9 9 5 5 1021.9 1021.0 0.0
24/03:00am 8.8 6.3 4.8 76 1.8 SSE 7 11 4 6 1021.8 1020.9 0.0
24/02:30am 9.1 6.6 4.9 75 1.9 SE 7 9 4 5 1021.7 1020.8 0.0
24/02:00am 9.4 6.9 4.8 73 2.1 SSE 7 9 4 5 1021.6 1020.7 0.0
24/01:30am 9.8 7.3 5.0 72 2.2 SE 7 11 4 6 1021.6 1020.7 0.0
24/01:00am 10.1 7.3 5.1 71 2.3 SE 9 13 5 7 1021.7 1020.8 0.0
24/12:30am 10.6 7.9 5.4 70 2.4 SE 9 13 5 7 1021.7 1020.8 0.0
24/12:00am 11.1 8.4 5.4 68 2.7 SE 9 13 5 7 1021.7 1020.8 0.0
 
Date/Time
WST
Temp
°C
App
Temp
°C
Dew
Point
Rel
Hum
%
Delta-T
°C
Wind Press
QNH
hPa
Press
MSL
hPa
Rain
since 9 am
mm
Dir
 
Spd
km/h
Gust
km/h
Spd
kts
Gust
kts
23/11:30pm 11.5 8.4 5.4 66 2.9 SE 11 17 6 9 1021.7 1020.8 0.0
23/11:00pm 12.0 8.2 5.6 65 3.0 SE 15 20 8 11 1021.5 1020.6 0.0
23/10:30pm 12.5 8.1 5.0 60 3.5 SE 17 24 9 13 1021.4 1020.5 0.0
23/10:00pm 13.3 8.9 4.5 55 4.1 SSE 17 32 9 17 1021.0 1020.1 0.0
23/09:30pm 14.0 9.7 5.4 56 4.1 SE 17 26 9 14 1020.9 1020.0 0.0
23/09:00pm 15.5 10.6 4.2 47 5.3 SSE 19 28 10 15 1020.3 1019.5 0.0
23/08:30pm 16.4 11.3 4.1 44 5.8 S 20 32 11 17 1019.6 1018.8 0.0
23/08:00pm 17.2 13.1 4.2 42 6.2 S 15 24 8 13 1019.0 1018.2 0.0
23/07:30pm 18.1 13.9 3.6 38 6.9 S 15 20 8 11 1018.4 1017.5 0.0
23/07:00pm 19.1 14.7 2.9 34 7.6 S 15 24 8 13 1017.8 1016.9 0.0
23/06:30pm 20.2 15.8 2.5 31 8.4 S 15 24 8 13 1017.3 1016.4 0.0
23/06:00pm 21.0 15.9 2.8 30 8.7 S 19 28 10 15 1016.7 1015.9 0.0
23/05:30pm 21.3 16.5 2.6 29 8.9 SSW 17 26 9 14 1016.2 1015.4 0.0
23/05:00pm 21.7 16.8 3.9 31 8.7 SSW 19 30 10 16 1016.0 1015.2 0.0
23/04:30pm 22.2 17.5 3.3 29 9.2 SW 17 24 9 13 1015.7 1014.8 0.0
23/04:00pm 22.3 17.7 3.9 30 9.1 SSW 17 30 9 16 1015.6 1014.7 0.0
23/03:30pm 21.5 16.5 3.7 31 8.7 SSW 19 32 10 17 1015.4 1014.5 0.0
23/03:00pm 21.6 16.5 4.2 32 8.6 SW 20 30 11 16 1015.4 1014.5 0.0
23/02:30pm 22.2 17.4 4.7 32 8.7 SW 19 33 10 18 1015.5 1014.6 0.0
23/02:00pm 20.9 16.1 5.7 37 7.7 SSW 20 26 11 14 1015.7 1014.8 0.0
23/01:30pm 20.7 15.9 5.5 37 7.6 SW 20 32 11 17 1015.7 1014.8 0.0
23/01:00pm 21.2 16.7 6.3 38 7.6 W 19 26 10 14 1015.7 1014.8 0.0
23/12:30pm 20.4 15.8 6.7 41 7.0 SSW 20 33 11 18 1015.8 1015.0 0.0
23/12:00pm 19.9 14.9 6.3 41 6.9 SSW 22 33 12 18 1015.9 1015.1 0.0
23/11:30am 19.7 16.4 6.4 42 6.7 WSW 13 20 7 11 1016.0 1015.2 0.0
23/11:00am 18.8 14.5 6.9 46 6.1 SSW 19 30 10 16 1016.1 1015.3 0.0
23/10:30am 18.1 14.0 7.8 51 5.3 SW 19 26 10 14 1016.4 1015.6 0.0
23/10:00am 17.7 13.9 7.4 51 5.3 SW 17 30 9 16 1016.3 1015.5 0.0
23/09:30am 17.3 13.2 7.9 54 4.8 SW 19 30 10 16 1016.2 1015.4 0.0
23/09:00am 16.6 12.2 7.5 55 4.6 SW 20 28 11 15 1016.2 1015.4 0.0
23/08:30am 15.8 11.4 7.6 58 4.2 SW 20 35 11 19 1016.1 1015.3 0.0
23/08:00am 16.0 11.4 8.0 59 4.1 SW 22 32 12 17 1016.1 1015.3 0.0
23/07:30am 15.6 11.2 7.6 59 4.0 SW 20 33 11 18 1015.9 1015.1 0.0
23/07:00am 14.5 10.3 7.5 63 3.5 WSW 19 28 10 15 1015.6 1014.7 0.0
23/06:30am 13.9 10.9 7.9 67 3.0 WNW 13 17 7 9 1015.4 1014.5 0.0
23/06:00am 12.9 10.6 7.6 70 2.6 W 9 13 5 7 1015.1 1014.2 0.0
23/05:30am 11.9 10.1 7.0 72 2.4 W 6 9 3 5 1014.7 1013.8 0.0
23/05:00am 11.5 9.6 6.6 72 2.4 WNW 6 11 3 6 1014.4 1013.5 0.0
23/04:30am 11.8 9.9 6.9 72 2.4 W 6 9 3 5 1014.1 1013.2 0.0
23/04:00am 11.7 10.9 6.6 71 2.5 CALM 0 0 0 0 1013.9 1013.0 0.0
23/03:30am 12.3 10.2 6.8 69 2.7 W 7 11 4 6 1013.6 1012.7 0.0
23/03:00am 12.3 10.3 7.0 70 2.6 W 7 11 4 6 1013.4 1012.5 0.0
23/02:30am 12.6 10.2 7.1 69 2.7 WSW 9 15 5 8 1013.3 1012.4 0.0
23/02:00am 13.0 10.3 7.2 68 2.9 WSW 11 19 6 10 1013.4 1012.5 0.0
23/01:30am 13.3 10.5 7.1 66 3.1 SW 11 17 6 9 1013.6 1012.7 0.0
23/01:00am 13.9 10.5 7.7 66 3.1 SW 15 22 8 12 1013.6 1012.7 0.0
23/12:30am 14.3 10.6 7.8 65 3.3 SSW 17 24 9 13 1013.8 1012.9 0.0
23/12:00am 14.9 11.2 7.9 63 3.5 SW 17 32 9 17 1013.7 1012.8 0.0
 
Date/Time
WST
Temp
°C
App
Temp
°C
Dew
Point
Rel
Hum
%
Delta-T
°C
Wind Press
QNH
hPa
Press
MSL
hPa
Rain
since 9 am
mm
Dir
 
Spd
km/h
Gust
km/h
Spd
kts
Gust
kts
22/11:30pm 15.6 12.2 9.1 65 3.4 WSW 17 24 9 13 1013.6 1012.7 0.0
22/11:00pm 16.2 12.2 9.2 63 3.7 WSW 20 33 11 18 1013.7 1012.8 0.0
22/10:30pm 16.9 11.8 9.3 61 4.0 WSW 26 39 14 21 1013.6 1012.7 0.0
22/10:00pm 17.6 12.5 9.2 58 4.4 WSW 26 39 14 21 1013.5 1012.6 0.0
22/09:30pm 18.4 13.6 8.7 53 5.1 WSW 24 39 13 21 1013.3 1012.4 0.0
22/09:00pm 19.3 15.0 8.0 48 5.9 WSW 20 33 11 18 1012.8 1012.0 0.0
22/08:30pm 19.8 16.3 7.2 44 6.5 WSW 15 22 8 12 1012.5 1011.6 0.0
22/08:00pm 20.5 17.1 6.1 39 7.3 W 13 19 7 10 1012.2 1011.3 0.0
22/07:30pm 21.2 18.2 5.9 37 7.8 W 11 20 6 11 1011.9 1011.0 0.0
22/07:00pm 21.7 18.2 5.6 35 8.2 W 13 17 7 9 1011.7 1010.8 0.0
22/06:30pm 22.3 18.0 5.3 33 8.6 W 17 24 9 13 1011.6 1010.7 0.0
22/06:00pm 22.9 18.1 4.9 31 9.1 W 19 33 10 18 1011.3 1010.4 0.0
22/05:30pm 23.9 18.9 4.8 29 9.7 WNW 20 28 11 15 1010.9 1010.0 0.0
22/05:00pm 23.8 18.5 5.2 30 9.5 W 22 37 12 20 1010.8 1009.9 0.0
22/04:30pm 24.0 19.2 5.4 30 9.5 W 20 33 11 18 1010.8 1009.9 0.0
22/04:00pm 23.9 19.2 5.3 30 9.5 W 19 30 10 16 1010.7 1009.8 0.0
22/03:30pm 23.7 18.9 5.6 31 9.3 WNW 20 33 11 18 1010.8 1009.9 0.0
22/03:00pm 23.7 19.0 5.1 30 9.5 NNW 19 22 10 12 1010.9 1010.0 0.0
22/02:30pm 23.8 19.0 5.7 31 9.3 WNW 20 30 11 16 1011.2 1010.3 0.0
22/02:00pm 22.6 18.6 5.1 32 8.8 W 15 26 8 14 1011.5 1010.6 0.0
22/01:30pm 23.1 18.4 6.0 33 8.8 SW 20 32 11 17 1011.6 1010.7 0.0
22/01:00pm 22.9 18.3 5.8 33 8.8 W 19 28 10 15 1011.9 1011.0 0.0
22/12:30pm 21.8 18.4 5.7 35 8.2 WSW 13 28 7 15 1012.1 1011.2 0.0
22/12:00pm 21.7 18.9 6.8 38 7.7 WSW 11 22 6 12 1012.3 1011.4 0.0
22/11:30am 21.0 17.7 6.2 38 7.5 W 13 17 7 9 1012.6 1011.7 0.0
22/11:00am 20.4 18.0 7.1 42 6.9 SW 9 15 5 8 1012.9 1012.1 0.0
22/10:30am 19.2 15.7 7.0 45 6.2 W 15 26 8 14 1013.4 1012.5 0.0
22/10:00am 18.6 15.0 6.8 46 6.0 WSW 15 24 8 13 1013.5 1012.6 0.0
22/09:30am 17.8 14.6 6.7 48 5.6 SW 13 22 7 12 1013.6 1012.7 0.0
22/09:00am 17.0 13.8 6.8 51 5.1 SW 13 22 7 12 1013.7 1012.8 0.0
22/08:30am 16.6 13.4 6.7 52 4.9 WSW 13 22 7 12 1013.8 1012.9 0.0
22/08:00am 16.0 12.9 7.2 56 4.4 WSW 13 20 7 11 1013.8 1012.9 0.0
22/07:30am 15.6 12.3 7.9 60 3.9 WSW 15 26 8 14 1013.7 1012.8 0.0
22/07:00am 15.3 12.5 8.5 64 3.5 WSW 13 17 7 9 1013.4 1012.5 0.0
22/06:30am 14.7 12.9 9.5 71 2.7 WSW 9 15 5 8 1013.0 1012.2 0.0
22/06:00am 14.1 12.4 9.7 75 2.3 WSW 9 19 5 10 1012.8 1012.0 0.0
22/05:30am 13.4 12.1 9.8 79 1.9 SW 7 13 4 7 1012.5 1011.6 0.0
22/05:00am 13.1 11.0 9.7 80 1.8 WSW 11 15 6 8 1012.3 1011.4 0.0
22/04:30am 13.2 11.5 9.8 80 1.8 WSW 9 11 5 6 1011.9 1011.0 0.0
22/04:00am 13.5 12.1 9.6 77 2.0 SW 7 11 4 6 1011.6 1010.7 0.0
22/03:30am 14.1 11.9 9.5 74 2.4 WSW 11 15 6 8 1011.4 1010.5 0.0
22/03:00am 14.4 12.6 9.6 73 2.5 SW 9 15 5 8 1011.3 1010.4 0.0
22/02:30am 14.0 12.5 9.0 72 2.6 SW 7 11 4 6 1011.1 1010.2 0.0
22/02:00am 14.6 12.4 9.2 70 2.8 SW 11 17 6 9 1011.1 1010.2 0.0
22/01:30am 15.0 12.4 9.4 69 2.9 SW 13 17 7 9 1011.2 1010.3 0.0
22/01:00am 15.0 12.3 9.1 68 3.1 SW 13 19 7 10 1011.3 1010.4 0.0
22/12:30am 15.1 12.7 8.8 66 3.3 WSW 11 22 6 12 1011.5 1010.6 0.0
22/12:00am 15.3 13.2 8.3 63 3.6 WSW 9 13 5 7 1011.5 1010.6 0.0
 
Date/Time
WST
Temp
°C
App
Temp
°C
Dew
Point
Rel
Hum
%
Delta-T
°C
Wind Press
QNH
hPa
Press
MSL
hPa
Rain
since 9 am
mm
Dir
 
Spd
km/h
Gust
km/h
Spd
kts
Gust
kts
21/11:30pm 15.7 13.2 8.0 60 3.9 SW 11 17 6 9 1011.5 1010.6 0.0
21/11:00pm 16.2 13.1 7.4 56 4.5 WSW 13 17 7 9 1011.5 1010.6 0.0

Other Formats:

Comma delimited format used in spreadsheet applications
http://www.bom.gov.au/fwo/IDW60801/IDW60801.95637.axf

JavaScript Object Notation format (JSON) in row-major order
http://www.bom.gov.au/fwo/IDW60801/IDW60801.95637.json